Time;durP1;ratioP1;P1;durP2;ratioP2;P2;SDS_P1;SDS_P2;PMS_P1;PMS_P2;Temp;Humidity;BMP_temperature;BMP_pressure;BME280_temperature;BME280_humidity;BME280_pressure;Samples;Min_cycle;Max_cycle;Signal;HPM_P1;HPM_P2
2022/11/10 00:02:14;;;;;;;18.60;4.30;;;;;;;;;;5066500;28;20032;-62
2022/11/10 00:04:39;;;;;;;18.70;5.30;;;;;;;;;;5068898;28;20039;-62
2022/11/10 00:07:04;;;;;;;21.23;5.93;;;;;;;;;;5070002;28;20083;-62
2022/11/10 00:09:29;;;;;;;16.97;4.03;;;;;;;;;;5066091;28;20448;-62
2022/11/10 00:11:55;;;;;;;14.30;4.30;;;;;;;;;;5067537;28;20035;-62
2022/11/10 00:17:04;;;;;;;11.10;4.20;;;;;;;;;;5068489;28;20086;-63
2022/11/10 00:19:33;;;;;;;16.67;4.53;;;;;;;;;;5063912;28;20033;-62
2022/11/10 00:21:59;;;;;;;13.87;3.97;;;;;;;;;;5071453;28;20019;-63
2022/11/10 00:24:24;;;;;;;15.27;4.53;;;;;;;;;;5071101;28;20025;-63
2022/11/10 00:26:50;;;;;;;17.07;4.33;;;;;;;;;;5068720;28;20391;-62
2022/11/10 00:29:15;;;;;;;14.20;4.10;;;;;;;;;;5069260;28;20020;-62
2022/11/10 00:31:40;;;;;;;19.33;4.90;;;;;;;;;;5066317;28;20130;-62
2022/11/10 00:34:06;;;;;;;20.80;4.23;;;;;;;;;;5074401;28;20444;-62
2022/11/10 00:36:33;;;;;;;16.80;4.80;;;;;;;;;;5069612;28;20444;-62
2022/11/10 00:38:58;;;;;;;17.73;4.50;;;;;;;;;;5067305;28;20078;-62
2022/11/10 00:41:23;;;;;;;13.63;5.00;;;;;;;;;;5067454;28;20041;-62
2022/11/10 00:43:48;;;;;;;21.33;4.60;;;;;;;;;;5069289;28;20025;-61
2022/11/10 00:46:14;;;;;;;11.20;4.87;;;;;;;;;;5064673;28;20028;-63
2022/11/10 00:48:39;;;;;;;14.83;4.37;;;;;;;;;;5068380;28;20025;-61
2022/11/10 00:51:05;;;;;;;18.33;4.30;;;;;;;;;;5066251;28;20048;-62
2022/11/10 00:53:30;;;;;;;16.90;4.33;;;;;;;;;;5069373;28;20463;-62
2022/11/10 00:55:55;;;;;;;16.23;4.87;;;;;;;;;;5067274;28;20029;-62
2022/11/10 00:58:20;;;;;;;22.30;5.40;;;;;;;;;;5068485;28;20036;-62
2022/11/10 01:00:46;;;;;;;17.87;5.10;;;;;;;;;;5070616;28;20039;-62
2022/11/10 01:03:12;;;;;;;19.77;5.10;;;;;;;;;;5073850;28;20029;-62
2022/11/10 01:05:37;;;;;;;19.40;5.03;;;;;;;;;;5074940;28;20111;-63
2022/11/10 01:08:02;;;;;;;21.67;4.93;;;;;;;;;;5071354;28;20164;-62
2022/11/10 01:10:28;;;;;;;17.83;5.50;;;;;;;;;;5072262;28;20464;-62
2022/11/10 01:12:53;;;;;;;21.83;5.00;;;;;;;;;;5069072;28;20028;-61
2022/11/10 01:15:19;;;;;;;20.13;5.07;;;;;;;;;;5067932;28;20036;-62
2022/11/10 01:17:44;;;;;;;19.00;5.60;;;;;;;;;;5071543;28;20059;-61
2022/11/10 01:20:09;;;;;;;17.63;5.30;;;;;;;;;;5071259;28;20177;-62
2022/11/10 01:22:35;;;;;;;17.67;5.40;;;;;;;;;;5069388;28;20387;-62
2022/11/10 01:25:00;;;;;;;15.90;5.40;;;;;;;;;;5072150;28;20024;-62
2022/11/10 01:27:25;;;;;;;17.13;4.90;;;;;;;;;;5069481;28;20024;-62
2022/11/10 01:29:51;;;;;;;18.07;5.40;;;;;;;;;;5071709;28;20028;-62
2022/11/10 01:32:16;;;;;;;18.67;7.13;;;;;;;;;;5070045;28;20387;-62
2022/11/10 01:34:41;;;;;;;20.47;6.00;;;;;;;;;;5075087;28;20463;-61
2022/11/10 01:37:12;;;;;;;18.97;6.10;;;;;;;;;;5067943;28;20100;-61
2022/11/10 01:39:38;;;;;;;24.40;6.30;;;;;;;;;;5072390;28;20039;-62
2022/11/10 01:42:03;;;;;;;20.37;6.23;;;;;;;;;;5065985;28;20460;-62
2022/11/10 01:44:28;;;;;;;21.83;5.87;;;;;;;;;;5071484;28;20024;-62
2022/11/10 01:46:54;;;;;;;24.47;6.77;;;;;;;;;;5068753;28;20043;-62
2022/11/10 01:49:21;;;;;;;26.77;6.57;;;;;;;;;;5067773;28;20471;-62
2022/11/10 01:51:49;;;;;;;22.13;7.23;;;;;;;;;;5071762;28;20372;-63
2022/11/10 01:54:17;;;;;;;18.00;5.97;;;;;;;;;;5070242;28;20033;-63
2022/11/10 01:56:46;;;;;;;19.97;6.17;;;;;;;;;;5071828;28;20004;-62
2022/11/10 01:59:13;;;;;;;17.77;5.50;;;;;;;;;;5067362;28;20024;-62
2022/11/10 02:01:39;;;;;;;20.10;6.00;;;;;;;;;;5066683;28;20104;-62
2022/11/10 02:04:06;;;;;;;15.57;4.67;;;;;;;;;;5070729;28;20116;-62
2022/11/10 02:06:33;;;;;;;23.90;6.53;;;;;;;;;;5069507;28;20502;-61
2022/11/10 02:08:58;;;;;;;18.77;6.23;;;;;;;;;;5070848;28;20024;-62
2022/11/10 02:11:23;;;;;;;23.80;6.63;;;;;;;;;;5065389;28;20036;-61
2022/11/10 02:13:49;;;;;;;22.73;6.77;;;;;;;;;;5073550;28;20035;-62
2022/11/10 02:16:14;;;;;;;23.80;6.00;;;;;;;;;;5068712;28;20032;-62
2022/11/10 02:18:39;;;;;;;28.87;6.70;;;;;;;;;;5066998;28;20538;-63
2022/11/10 02:21:08;;;;;;;21.43;6.63;;;;;;;;;;5069699;28;20077;-61
2022/11/10 02:23:36;;;;;;;25.37;6.47;;;;;;;;;;5071968;28;20029;-62
2022/11/10 02:26:02;;;;;;;29.93;7.60;;;;;;;;;;5074113;28;20031;-63
2022/11/10 02:28:31;;;;;;;24.83;7.70;;;;;;;;;;5070762;28;20035;-61
2022/11/10 02:30:56;;;;;;;24.73;7.63;;;;;;;;;;5070731;28;20024;-62
2022/11/10 02:33:22;;;;;;;23.40;7.03;;;;;;;;;;5075718;28;20047;-61
2022/11/10 02:35:47;;;;;;;22.00;7.13;;;;;;;;;;5068872;28;20028;-62
2022/11/10 02:38:12;;;;;;;25.47;7.23;;;;;;;;;;5068065;28;20035;-62
2022/11/10 02:40:38;;;;;;;21.60;7.20;;;;;;;;;;5069608;28;20368;-61
2022/11/10 02:43:04;;;;;;;25.33;8.67;;;;;;;;;;5069055;28;20032;-62
2022/11/10 02:45:29;;;;;;;26.23;7.57;;;;;;;;;;5069894;28;20103;-62
2022/11/10 02:47:55;;;;;;;24.87;7.07;;;;;;;;;;5077213;28;20048;-62
2022/11/10 02:50:20;;;;;;;28.20;7.27;;;;;;;;;;5070661;28;20106;-62
2022/11/10 02:52:45;;;;;;;27.03;7.90;;;;;;;;;;5065404;28;20048;-62
2022/11/10 02:55:10;;;;;;;28.63;7.47;;;;;;;;;;5071829;28;20033;-62
2022/11/10 02:57:36;;;;;;;23.43;7.40;;;;;;;;;;5069265;28;20384;-62
2022/11/10 03:00:02;;;;;;;28.50;8.57;;;;;;;;;;5073256;28;20032;-63
2022/11/10 03:02:27;;;;;;;25.53;8.07;;;;;;;;;;5068139;28;20032;-62
2022/11/10 03:04:52;;;;;;;21.93;8.10;;;;;;;;;;5068066;28;20021;-62
2022/11/10 03:07:17;;;;;;;30.93;8.47;;;;;;;;;;5072568;28;20078;-62
2022/11/10 03:09:42;;;;;;;28.47;8.50;;;;;;;;;;5068383;28;20036;-61
2022/11/10 03:12:08;;;;;;;28.30;9.07;;;;;;;;;;5070990;28;20028;-61
2022/11/10 03:14:33;;;;;;;34.90;9.60;;;;;;;;;;5070913;28;20017;-61
2022/11/10 03:16:58;;;;;;;27.93;9.50;;;;;;;;;;5064535;28;20112;-62
2022/11/10 03:19:23;;;;;;;28.43;9.70;;;;;;;;;;5066954;28;20060;-63
2022/11/10 03:21:49;;;;;;;27.03;9.20;;;;;;;;;;5071960;28;20020;-61
2022/11/10 03:24:14;;;;;;;25.47;8.77;;;;;;;;;;5068063;28;20907;-62
2022/11/10 03:26:39;;;;;;;32.63;10.33;;;;;;;;;;5067787;28;20344;-61
2022/11/10 03:29:04;;;;;;;28.27;9.47;;;;;;;;;;5068165;28;20025;-61
2022/11/10 03:31:29;;;;;;;33.47;9.97;;;;;;;;;;5060054;28;20361;-62
2022/11/10 03:33:55;;;;;;;29.87;10.90;;;;;;;;;;5063264;28;20082;-61
2022/11/10 03:36:20;;;;;;;30.13;10.37;;;;;;;;;;5068544;28;20458;-62
2022/11/10 03:38:45;;;;;;;31.43;10.93;;;;;;;;;;5069856;28;20518;-62
2022/11/10 03:41:11;;;;;;;30.07;11.23;;;;;;;;;;5067906;28;20021;-62
2022/11/10 03:43:36;;;;;;;28.97;10.77;;;;;;;;;;5068039;28;20020;-62
2022/11/10 03:46:01;;;;;;;35.27;10.67;;;;;;;;;;5062661;28;20020;-62
2022/11/10 03:48:26;;;;;;;37.10;11.00;;;;;;;;;;5061434;28;20023;-61
2022/11/10 03:50:51;;;;;;;37.47;11.47;;;;;;;;;;5065842;28;20058;-62
2022/11/10 03:53:17;;;;;;;35.23;11.07;;;;;;;;;;5063951;28;20039;-62
2022/11/10 03:55:42;;;;;;;34.33;10.53;;;;;;;;;;5070912;28;20028;-62
2022/11/10 03:58:07;;;;;;;41.70;13.07;;;;;;;;;;5068391;28;20383;-61
2022/11/10 04:00:32;;;;;;;35.77;11.93;;;;;;;;;;5066097;28;20017;-62
2022/11/10 04:02:58;;;;;;;40.73;11.67;;;;;;;;;;5066586;28;20021;-62
2022/11/10 04:10:55;;;;;;;38.57;11.77;;;;;;;;;;5065900;28;20042;-62
2022/11/10 04:16:04;;;;;;;40.10;12.90;;;;;;;;;;5063328;28;20071;-62
2022/11/10 04:18:29;;;;;;;37.30;11.87;;;;;;;;;;5068859;28;20028;-62
2022/11/10 04:20:56;;;;;;;38.70;12.60;;;;;;;;;;5067733;28;20528;-62
2022/11/10 04:23:55;;;;;;;29.50;11.33;;;;;;;;;;5051385;28;20422;-62
2022/11/10 04:26:32;;;;;;;32.63;11.40;;;;;;;;;;5062609;28;20041;-62
2022/11/10 04:29:01;;;;;;;32.87;12.50;;;;;;;;;;5068364;28;20016;-61
2022/11/10 04:31:27;;;;;;;36.37;12.13;;;;;;;;;;5068661;28;20480;-61
2022/11/10 04:33:53;;;;;;;36.40;12.17;;;;;;;;;;5015747;28;1508950;-62
2022/11/10 04:36:20;;;;;;;35.07;13.33;;;;;;;;;;5068485;28;20529;-62
2022/11/10 04:38:45;;;;;;;34.07;12.93;;;;;;;;;;5065474;28;20035;-62
2022/11/10 04:41:11;;;;;;;50.53;13.47;;;;;;;;;;5074180;28;20036;-61
2022/11/10 04:43:37;;;;;;;29.03;11.87;;;;;;;;;;5071420;28;20108;-63
2022/11/10 04:46:03;;;;;;;41.20;15.33;;;;;;;;;;5066443;28;20032;-61
2022/11/10 04:48:29;;;;;;;29.33;12.60;;;;;;;;;;5073492;28;20020;-63
2022/11/10 04:50:54;;;;;;;32.10;11.97;;;;;;;;;;5071091;28;20127;-62
2022/11/10 04:53:19;;;;;;;35.50;13.03;;;;;;;;;;5073661;28;20171;-61
2022/11/10 04:55:45;;;;;;;28.97;12.63;;;;;;;;;;5066982;28;20020;-61
2022/11/10 04:58:10;;;;;;;40.80;13.40;;;;;;;;;;5072030;28;20037;-61
2022/11/10 05:00:36;;;;;;;34.10;12.40;;;;;;;;;;5067144;28;20021;-62
2022/11/10 05:03:02;;;;;;;31.43;12.77;;;;;;;;;;5067275;28;20053;-62
2022/11/10 05:05:28;;;;;;;28.73;11.93;;;;;;;;;;5071337;28;20017;-62
2022/11/10 05:07:53;;;;;;;35.33;13.67;;;;;;;;;;5069544;28;20091;-63
2022/11/10 05:10:18;;;;;;;40.13;13.27;;;;;;;;;;5067848;28;20047;-62
2022/11/10 05:12:44;;;;;;;31.17;11.97;;;;;;;;;;5068956;28;20476;-62
2022/11/10 05:15:09;;;;;;;33.13;12.67;;;;;;;;;;5067463;28;20031;-62
2022/11/10 05:17:34;;;;;;;28.47;14.00;;;;;;;;;;5072259;28;20056;-62
2022/11/10 05:19:59;;;;;;;24.47;10.97;;;;;;;;;;5072325;28;20036;-62
2022/11/10 05:22:25;;;;;;;39.03;13.90;;;;;;;;;;5080400;28;20020;-61
2022/11/10 05:24:50;;;;;;;33.33;13.07;;;;;;;;;;5073068;28;20016;-63
2022/11/10 05:27:15;;;;;;;36.13;12.97;;;;;;;;;;5054565;28;20021;-63
2022/11/10 05:29:53;;;;;;;36.00;13.80;;;;;;;;;;5059390;28;20063;-62
2022/11/10 05:32:18;;;;;;;29.87;13.27;;;;;;;;;;5072100;28;20039;-62
2022/11/10 05:34:43;;;;;;;35.17;13.97;;;;;;;;;;5067866;28;20024;-62
2022/11/10 05:37:08;;;;;;;29.13;12.30;;;;;;;;;;5072127;28;20025;-62
2022/11/10 05:39:34;;;;;;;31.00;13.23;;;;;;;;;;5073186;28;20024;-63
2022/11/10 05:41:59;;;;;;;43.27;14.37;;;;;;;;;;5059631;28;20088;-61
2022/11/10 05:44:24;;;;;;;32.47;14.17;;;;;;;;;;5056750;28;20025;-62
2022/11/10 05:46:50;;;;;;;32.83;13.30;;;;;;;;;;5061179;28;20078;-63
2022/11/10 05:49:15;;;;;;;32.80;13.50;;;;;;;;;;5072607;28;20021;-62
2022/11/10 05:51:40;;;;;;;43.43;15.13;;;;;;;;;;5070045;28;20027;-61
2022/11/10 05:54:05;;;;;;;32.70;14.17;;;;;;;;;;5062649;28;20052;-62
2022/11/10 05:56:31;;;;;;;34.13;14.57;;;;;;;;;;5059276;28;20031;-62
2022/11/10 05:58:56;;;;;;;30.77;12.93;;;;;;;;;;5059380;28;20075;-63
2022/11/10 06:01:21;;;;;;;30.20;14.27;;;;;;;;;;5060081;28;20060;-63
2022/11/10 06:03:46;;;;;;;33.27;14.07;;;;;;;;;;5055341;28;20053;-62
2022/11/10 06:06:11;;;;;;;31.13;14.47;;;;;;;;;;5055225;28;20032;-62
2022/11/10 06:08:37;;;;;;;27.20;11.77;;;;;;;;;;5073577;28;20012;-62
2022/11/10 06:11:03;;;;;;;34.27;12.97;;;;;;;;;;5079106;28;20395;-62
2022/11/10 06:13:28;;;;;;;34.90;15.00;;;;;;;;;;5056884;28;20021;-62
2022/11/10 06:15:53;;;;;;;38.10;14.80;;;;;;;;;;5060488;28;20373;-62
2022/11/10 06:18:19;;;;;;;37.37;15.00;;;;;;;;;;5065174;28;20045;-62
2022/11/10 06:20:44;;;;;;;36.70;14.80;;;;;;;;;;5063304;28;20060;-62
2022/11/10 06:23:10;;;;;;;36.33;15.97;;;;;;;;;;5055098;28;20067;-62
2022/11/10 06:25:52;;;;;;;36.43;14.00;;;;;;;;;;5049462;28;20024;-63
2022/11/10 06:28:18;;;;;;;34.63;14.83;;;;;;;;;;5064274;28;20071;-62
2022/11/10 06:30:43;;;;;;;43.03;15.43;;;;;;;;;;5053908;28;20021;-62
2022/11/10 06:33:08;;;;;;;32.57;14.80;;;;;;;;;;5062004;28;20090;-62
2022/11/10 06:35:33;;;;;;;36.00;15.73;;;;;;;;;;5067428;28;20430;-62
2022/11/10 06:38:03;;;;;;;32.57;15.37;;;;;;;;;;5071917;28;20036;-62
2022/11/10 06:40:29;;;;;;;36.10;15.90;;;;;;;;;;5055860;28;20029;-63
2022/11/10 06:42:54;;;;;;;33.87;14.77;;;;;;;;;;5055109;28;20529;-62
2022/11/10 06:45:20;;;;;;;32.33;14.93;;;;;;;;;;5052821;28;20040;-62
2022/11/10 06:47:46;;;;;;;33.33;13.17;;;;;;;;;;5077498;28;20403;-62
2022/11/10 06:50:11;;;;;;;33.90;15.50;;;;;;;;;;5092563;28;20016;-62
2022/11/10 06:52:36;;;;;;;35.70;14.97;;;;;;;;;;5071786;28;20059;-62
2022/11/10 06:55:01;;;;;;;37.20;15.83;;;;;;;;;;5071796;28;20082;-62
2022/11/10 06:57:27;;;;;;;36.43;15.17;;;;;;;;;;5072167;28;20032;-62
2022/11/10 06:59:53;;;;;;;34.47;15.10;;;;;;;;;;5056639;28;20554;-62
2022/11/10 07:02:18;;;;;;;33.00;14.03;;;;;;;;;;5071930;28;20021;-62
2022/11/10 07:04:43;;;;;;;32.53;15.10;;;;;;;;;;5071126;28;20468;-62
2022/11/10 07:07:09;;;;;;;32.90;15.17;;;;;;;;;;5070432;28;20471;-62
2022/11/10 07:09:34;;;;;;;40.53;15.87;;;;;;;;;;5072636;28;20013;-62
2022/11/10 07:11:59;;;;;;;32.70;14.77;;;;;;;;;;5071687;28;20028;-61
2022/11/10 07:14:25;;;;;;;34.63;15.47;;;;;;;;;;5062855;28;20480;-61
2022/11/10 07:16:50;;;;;;;36.80;16.17;;;;;;;;;;5061528;28;20027;-61
2022/11/10 07:19:15;;;;;;;41.50;14.87;;;;;;;;;;5067595;28;20114;-61
2022/11/10 07:21:41;;;;;;;34.73;14.53;;;;;;;;;;5070891;28;20062;-62
2022/11/10 07:24:06;;;;;;;42.13;16.07;;;;;;;;;;5069496;28;20024;-61
2022/11/10 07:26:31;;;;;;;39.63;16.23;;;;;;;;;;5059036;28;20420;-61
2022/11/10 07:28:57;;;;;;;34.67;14.17;;;;;;;;;;5065978;28;20028;-62
2022/11/10 07:31:22;;;;;;;32.07;14.30;;;;;;;;;;5069760;28;20029;-62
2022/11/10 07:33:47;;;;;;;32.23;13.70;;;;;;;;;;5072020;28;20044;-62
2022/11/10 07:36:12;;;;;;;34.20;13.77;;;;;;;;;;5065833;28;20123;-61
2022/11/10 07:38:38;;;;;;;34.53;14.53;;;;;;;;;;5052024;28;20033;-62
2022/11/10 07:41:03;;;;;;;26.53;12.50;;;;;;;;;;5054818;28;20119;-62
2022/11/10 07:43:29;;;;;;;32.13;12.50;;;;;;;;;;5071504;28;20020;-62
2022/11/10 07:45:54;;;;;;;26.80;12.70;;;;;;;;;;5065380;28;20074;-61
2022/11/10 07:48:19;;;;;;;31.53;13.83;;;;;;;;;;5071166;28;20028;-62
2022/11/10 07:50:44;;;;;;;32.47;13.23;;;;;;;;;;5059488;28;20037;-62
2022/11/10 07:53:14;;;;;;;28.90;12.57;;;;;;;;;;5063226;28;20066;-62
2022/11/10 07:55:40;;;;;;;27.20;11.10;;;;;;;;;;5070701;28;20032;-62
2022/11/10 07:58:06;;;;;;;29.40;11.97;;;;;;;;;;5067656;28;20029;-62
2022/11/10 08:00:31;;;;;;;27.97;11.43;;;;;;;;;;5065867;28;20108;-62
2022/11/10 08:03:08;;;;;;;23.77;11.03;;;;;;;;;;5061474;28;20035;-62
2022/11/10 08:05:33;;;;;;;26.13;10.10;;;;;;;;;;5070458;28;20028;-62
2022/11/10 08:07:59;;;;;;;23.53;9.60;;;;;;;;;;5069035;28;20024;-62
2022/11/10 08:10:25;;;;;;;19.93;9.20;;;;;;;;;;5062678;28;20037;-65
2022/11/10 08:12:54;;;;;;;21.73;8.60;;;;;;;;;;5061217;28;20028;-62
2022/11/10 08:15:19;;;;;;;21.93;9.00;;;;;;;;;;5069265;28;20111;-62
2022/11/10 08:17:44;;;;;;;18.90;8.60;;;;;;;;;;5055833;28;20121;-62
2022/11/10 08:20:10;;;;;;;19.10;7.77;;;;;;;;;;5051377;28;20029;-62
2022/11/10 08:22:35;;;;;;;23.87;8.00;;;;;;;;;;5066823;28;20020;-62
2022/11/10 08:25:00;;;;;;;19.40;7.30;;;;;;;;;;5071491;28;20110;-63
2022/11/10 08:27:25;;;;;;;23.57;7.67;;;;;;;;;;5072441;28;20110;-62
2022/11/10 08:29:51;;;;;;;23.97;8.17;;;;;;;;;;5070235;28;20035;-62
2022/11/10 08:32:16;;;;;;;17.80;6.93;;;;;;;;;;5059405;28;20475;-63
2022/11/10 08:34:41;;;;;;;14.90;6.43;;;;;;;;;;5067624;28;20044;-63
2022/11/10 08:37:09;;;;;;;19.47;7.13;;;;;;;;;;5070178;28;20051;-63
2022/11/10 08:39:35;;;;;;;22.47;7.73;;;;;;;;;;5070596;28;20118;-61
2022/11/10 08:42:00;;;;;;;16.53;7.43;;;;;;;;;;5070765;28;20040;-63
2022/11/10 08:44:25;;;;;;;16.53;7.07;;;;;;;;;;5070947;28;20041;-62
2022/11/10 08:46:50;;;;;;;24.87;7.77;;;;;;;;;;5060657;28;20024;-63
2022/11/10 08:49:16;;;;;;;20.20;7.00;;;;;;;;;;5051385;28;20482;-63
2022/11/10 08:51:41;;;;;;;25.63;7.33;;;;;;;;;;5054428;28;20549;-62
2022/11/10 08:54:06;;;;;;;17.13;6.40;;;;;;;;;;5058918;28;20385;-63
2022/11/10 08:56:32;;;;;;;15.07;6.30;;;;;;;;;;5052495;28;20476;-62
2022/11/10 08:58:57;;;;;;;16.87;6.57;;;;;;;;;;5072475;28;20035;-62
2022/11/10 09:01:23;;;;;;;22.77;6.67;;;;;;;;;;5080451;28;20460;-62
2022/11/10 09:03:48;;;;;;;20.43;7.53;;;;;;;;;;5052833;28;20108;-62
2022/11/10 09:06:13;;;;;;;15.23;6.47;;;;;;;;;;5054745;28;20494;-63
2022/11/10 09:08:39;;;;;;;19.83;6.23;;;;;;;;;;5070856;28;20032;-63
2022/11/10 09:11:04;;;;;;;18.97;6.33;;;;;;;;;;5066068;28;20033;-62
2022/11/10 09:13:29;;;;;;;21.53;7.20;;;;;;;;;;5058713;28;20033;-63
2022/11/10 09:15:55;;;;;;;22.33;6.90;;;;;;;;;;5069630;28;20040;-62
2022/11/10 09:18:20;;;;;;;18.53;5.90;;;;;;;;;;5064997;28;20463;-63
2022/11/10 09:20:45;;;;;;;23.73;7.20;;;;;;;;;;5069865;28;20032;-62
2022/11/10 09:23:14;;;;;;;21.47;6.50;;;;;;;;;;5070895;28;20499;-61
2022/11/10 09:25:40;;;;;;;15.70;6.10;;;;;;;;;;5073428;28;20058;-63
2022/11/10 09:28:14;;;;;;;15.10;5.83;;;;;;;;;;5070985;28;20420;-64
2022/11/10 09:30:44;;;;;;;18.30;5.87;;;;;;;;;;5071204;28;20021;-63
2022/11/10 09:33:10;;;;;;;18.00;6.17;;;;;;;;;;5065591;28;20388;-63
2022/11/10 09:35:54;;;;;;;19.33;5.83;;;;;;;;;;5054071;28;20021;-63
2022/11/10 09:38:38;;;;;;;16.00;5.57;;;;;;;;;;5054575;28;20071;-63
2022/11/10 09:41:22;;;;;;;18.03;5.83;;;;;;;;;;5066524;28;20388;-63
2022/11/10 09:44:05;;;;;;;15.27;5.40;;;;;;;;;;5074328;28;20361;-63
2022/11/10 09:46:49;;;;;;;16.53;5.30;;;;;;;;;;5070465;28;20111;-64
2022/11/10 09:49:33;;;;;;;15.03;5.57;;;;;;;;;;5056551;28;20536;-61
2022/11/10 09:52:17;;;;;;;19.07;6.67;;;;;;;;;;5068925;28;20464;-61
2022/11/10 09:55:00;;;;;;;16.37;6.40;;;;;;;;;;5057097;28;20033;-61
2022/11/10 09:57:44;;;;;;;20.20;6.77;;;;;;;;;;5066716;28;20411;-61
2022/11/10 10:00:28;;;;;;;20.60;6.53;;;;;;;;;;5073402;28;20025;-62
2022/11/10 10:03:12;;;;;;;17.83;5.93;;;;;;;;;;5072614;28;20399;-62
2022/11/10 10:05:56;;;;;;;15.27;6.50;;;;;;;;;;5057129;28;20021;-63
2022/11/10 10:08:40;;;;;;;19.00;5.97;;;;;;;;;;5072846;28;20028;-62
2022/11/10 10:11:23;;;;;;;16.17;6.17;;;;;;;;;;5072430;28;20017;-62
2022/11/10 10:14:08;;;;;;;19.10;6.83;;;;;;;;;;5072711;28;20020;-62
2022/11/10 10:16:51;;;;;;;21.93;6.13;;;;;;;;;;5056516;28;20029;-62
2022/11/10 10:19:35;;;;;;;19.53;6.10;;;;;;;;;;5055349;28;20039;-62
2022/11/10 10:22:19;;;;;;;18.73;6.30;;;;;;;;;;5062587;28;20498;-62
2022/11/10 10:25:03;;;;;;;17.67;6.10;;;;;;;;;;5073297;28;20028;-61
2022/11/10 10:27:50;;;;;;;21.53;5.67;;;;;;;;;;5070468;28;20027;-62
2022/11/10 10:30:34;;;;;;;14.30;4.97;;;;;;;;;;5074215;28;20380;-63
2022/11/10 10:33:17;;;;;;;19.53;5.63;;;;;;;;;;5061690;28;20116;-61
2022/11/10 10:36:01;;;;;;;14.47;3.90;;;;;;;;;;5068705;28;20020;-62
2022/11/10 10:38:45;;;;;;;15.63;5.47;;;;;;;;;;5072683;28;20139;-62
2022/11/10 10:41:29;;;;;;;20.60;5.43;;;;;;;;;;5072045;28;20028;-62
2022/11/10 10:44:18;;;;;;;13.37;4.03;;;;;;;;;;5073206;28;20096;-62
2022/11/10 10:47:05;;;;;;;17.23;4.53;;;;;;;;;;5067519;28;20376;-62
2022/11/10 10:49:49;;;;;;;16.40;5.10;;;;;;;;;;5072924;28;20012;-62
2022/11/10 10:52:33;;;;;;;13.83;4.43;;;;;;;;;;5065564;28;20139;-61
2022/11/10 10:55:17;;;;;;;16.53;4.57;;;;;;;;;;5072661;28;20078;-61
2022/11/10 10:58:01;;;;;;;15.25;4.80;;;;;;;;;;5071928;28;20016;-62
2022/11/10 11:00:45;;;;;;;19.17;5.13;;;;;;;;;;5071888;28;20012;-62
2022/11/10 11:03:28;;;;;;;19.53;5.00;;;;;;;;;;5071261;28;20468;-62
2022/11/10 11:06:12;;;;;;;15.40;4.40;;;;;;;;;;5068269;28;20021;-62
2022/11/10 11:08:56;;;;;;;15.07;3.97;;;;;;;;;;5072245;28;20078;-63
2022/11/10 11:11:40;;;;;;;14.47;4.57;;;;;;;;;;5064583;28;20098;-62
2022/11/10 11:14:23;;;;;;;19.97;4.83;;;;;;;;;;5055967;28;20033;-62
2022/11/10 11:17:07;;;;;;;17.90;4.20;;;;;;;;;;5071974;28;20503;-62
2022/11/10 11:19:51;;;;;;;11.60;3.50;;;;;;;;;;5064037;28;20495;-62
2022/11/10 11:22:36;;;;;;;22.70;4.57;;;;;;;;;;5058874;28;20426;-62
2022/11/10 11:25:20;;;;;;;11.48;3.10;;;;;;;;;;5071777;28;20035;-62
2022/11/10 11:28:04;;;;;;;15.90;3.30;;;;;;;;;;5072101;28;20471;-62
2022/11/10 11:30:47;;;;;;;16.53;3.50;;;;;;;;;;5071944;28;20131;-62
2022/11/10 11:33:31;;;;;;;19.33;3.60;;;;;;;;;;5052124;28;20052;-61
2022/11/10 11:36:15;;;;;;;16.83;3.67;;;;;;;;;;5052171;28;20302;-62
2022/11/10 11:38:59;;;;;;;15.50;3.57;;;;;;;;;;5053835;28;20021;-62
2022/11/10 11:41:42;;;;;;;17.30;2.80;;;;;;;;;;5072204;28;20032;-62
2022/11/10 11:44:27;;;;;;;17.13;3.00;;;;;;;;;;5072241;28;20013;-61
2022/11/10 11:47:10;;;;;;;16.40;3.10;;;;;;;;;;5071892;28;20387;-62
2022/11/10 11:49:54;;;;;;;8.68;2.55;;;;;;;;;;5071741;28;20100;-63
2022/11/10 11:52:38;;;;;;;19.65;3.42;;;;;;;;;;5071892;28;20154;-62
2022/11/10 11:55:22;;;;;;;13.50;2.70;;;;;;;;;;5068904;28;20468;-62
2022/11/10 11:58:05;;;;;;;17.23;3.40;;;;;;;;;;5070820;28;20029;-62
2022/11/10 12:00:49;;;;;;;11.57;2.58;;;;;;;;;;5071539;28;20050;-63
2022/11/10 12:03:33;;;;;;;17.05;2.88;;;;;;;;;;5071896;28;20020;-63
2022/11/10 12:06:17;;;;;;;8.23;2.05;;;;;;;;;;5071950;28;20371;-62
2022/11/10 12:09:00;;;;;;;14.00;2.75;;;;;;;;;;5071656;28;20017;-63
2022/11/10 12:11:44;;;;;;;14.35;2.33;;;;;;;;;;5071432;28;20099;-63
2022/11/10 12:14:28;;;;;;;11.75;2.15;;;;;;;;;;5057629;28;20110;-65
2022/11/10 12:17:12;;;;;;;12.48;2.33;;;;;;;;;;5051447;28;20096;-63
2022/11/10 12:19:56;;;;;;;11.45;2.45;;;;;;;;;;5051317;28;20025;-64
2022/11/10 12:22:40;;;;;;;15.95;2.35;;;;;;;;;;5051306;28;20033;-63
2022/11/10 12:25:23;;;;;;;14.35;2.30;;;;;;;;;;5064931;28;20116;-64
2022/11/10 12:28:07;;;;;;;10.73;2.20;;;;;;;;;;5071204;28;20146;-62
2022/11/10 12:30:51;;;;;;;19.02;2.97;;;;;;;;;;5071405;28;20063;-63
2022/11/10 12:33:35;;;;;;;10.20;1.92;;;;;;;;;;5067779;28;20094;-63
2022/11/10 12:36:19;;;;;;;14.38;2.33;;;;;;;;;;5050079;28;20095;-62
2022/11/10 12:39:03;;;;;;;13.75;2.35;;;;;;;;;;5051691;28;20028;-63
2022/11/10 12:41:46;;;;;;;10.98;2.35;;;;;;;;;;5056310;28;20078;-63
2022/11/10 12:44:39;;;;;;;10.88;2.28;;;;;;;;;;5069153;28;20574;-63
2022/11/10 12:47:23;;;;;;;11.05;2.55;;;;;;;;;;5082042;28;20577;-64
2022/11/10 12:50:07;;;;;;;11.48;2.50;;;;;;;;;;5051023;28;20120;-63
2022/11/10 12:52:51;;;;;;;17.10;2.88;;;;;;;;;;5070246;28;20115;-64
2022/11/10 12:55:35;;;;;;;15.27;2.65;;;;;;;;;;5061721;28;20521;-63
2022/11/10 12:58:19;;;;;;;12.98;2.58;;;;;;;;;;5069405;28;20079;-63
2022/11/10 13:01:03;;;;;;;14.05;2.50;;;;;;;;;;5073845;28;20028;-66
2022/11/10 13:03:46;;;;;;;13.52;2.28;;;;;;;;;;5063841;28;20025;-64
2022/11/10 13:06:30;;;;;;;16.17;2.83;;;;;;;;;;5055197;28;20021;-63
2022/11/10 13:09:14;;;;;;;14.57;2.78;;;;;;;;;;5055403;28;20426;-64
2022/11/10 13:11:58;;;;;;;15.75;2.63;;;;;;;;;;5060037;28;20595;-63
2022/11/10 13:14:42;;;;;;;14.50;2.42;;;;;;;;;;5075257;28;20364;-63
2022/11/10 13:17:26;;;;;;;15.82;2.30;;;;;;;;;;5077447;28;20386;-63
2022/11/10 13:20:10;;;;;;;10.98;2.35;;;;;;;;;;5081393;28;20043;-63
2022/11/10 13:22:55;;;;;;;10.48;1.90;;;;;;;;;;5073118;28;20036;-64
2022/11/10 13:25:38;;;;;;;12.18;2.40;;;;;;;;;;5072843;28;20054;-63
2022/11/10 13:28:22;;;;;;;12.15;2.50;;;;;;;;;;5062069;28;20037;-63
2022/11/10 13:31:06;;;;;;;16.38;2.67;;;;;;;;;;5079206;28;20032;-63
2022/11/10 13:33:50;;;;;;;17.55;2.67;;;;;;;;;;5080849;28;20074;-63
2022/11/10 13:36:34;;;;;;;13.63;2.38;;;;;;;;;;5073035;28;20032;-63
2022/11/10 13:39:25;;;;;;;15.68;2.30;;;;;;;;;;5073259;28;20041;-64
2022/11/10 13:42:09;;;;;;;13.23;2.03;;;;;;;;;;5072341;28;20456;-63
2022/11/10 13:44:53;;;;;;;17.75;2.45;;;;;;;;;;5070156;28;20033;-63
2022/11/10 13:47:40;;;;;;;10.63;2.08;;;;;;;;;;5069526;28;20025;-63
2022/11/10 13:50:26;;;;;;;13.60;1.95;;;;;;;;;;5073049;28;20032;-63
2022/11/10 13:53:10;;;;;;;10.27;2.00;;;;;;;;;;5069469;28;20097;-64
2022/11/10 13:55:55;;;;;;;14.45;2.45;;;;;;;;;;5074049;28;20035;-64
2022/11/10 13:58:39;;;;;;;11.43;2.25;;;;;;;;;;5065329;28;20040;-63
2022/11/10 14:01:25;;;;;;;14.77;2.30;;;;;;;;;;5053731;28;20079;-64
2022/11/10 14:04:09;;;;;;;12.80;2.20;;;;;;;;;;5069470;28;20031;-63
2022/11/10 14:06:53;;;;;;;15.23;2.60;;;;;;;;;;5073420;28;20461;-63
2022/11/10 14:09:38;;;;;;;15.30;2.20;;;;;;;;;;5073530;28;20021;-63
2022/11/10 14:12:22;;;;;;;16.77;2.75;;;;;;;;;;5074543;28;20214;-63
2022/11/10 14:15:06;;;;;;;19.38;2.78;;;;;;;;;;5086754;28;20032;-62
2022/11/10 14:17:50;;;;;;;17.85;2.90;;;;;;;;;;5070424;28;20055;-63
2022/11/10 14:20:33;;;;;;;15.48;2.30;;;;;;;;;;5073328;28;20384;-63
2022/11/10 14:23:17;;;;;;;16.55;2.83;;;;;;;;;;5079405;28;20039;-63
2022/11/10 14:26:02;;;;;;;16.63;3.10;;;;;;;;;;5093621;28;20499;-63
2022/11/10 14:28:46;;;;;;;17.33;3.65;;;;;;;;;;5061531;28;20166;-63
2022/11/10 14:31:34;;;;;;;20.70;3.30;;;;;;;;;;5054384;28;20151;-63
2022/11/10 14:34:18;;;;;;;15.20;2.22;;;;;;;;;;5064407;28;20033;-63
2022/11/10 14:37:03;;;;;;;16.63;2.60;;;;;;;;;;5071286;28;20025;-62
2022/11/10 14:39:46;;;;;;;12.73;2.30;;;;;;;;;;5062420;28;20380;-63
2022/11/10 14:42:30;;;;;;;16.63;2.58;;;;;;;;;;5070065;28;20036;-63
2022/11/10 14:45:14;;;;;;;22.70;3.60;;;;;;;;;;5052919;28;20380;-64
2022/11/10 14:47:58;;;;;;;13.60;2.20;;;;;;;;;;5062299;28;20039;-64
2022/11/10 14:50:42;;;;;;;10.97;2.07;;;;;;;;;;5072949;28;20032;-62
2022/11/10 14:53:28;;;;;;;11.63;2.37;;;;;;;;;;5055683;28;20491;-63
2022/11/10 14:56:11;;;;;;;16.83;2.25;;;;;;;;;;5070645;28;20052;-63
2022/11/10 14:58:55;;;;;;;13.63;2.63;;;;;;;;;;5065783;28;20431;-64
2022/11/10 15:01:41;;;;;;;14.43;2.37;;;;;;;;;;5061847;28;20032;-63
2022/11/10 15:04:25;;;;;;;16.13;2.30;;;;;;;;;;5070157;28;20028;-63
2022/11/10 15:07:09;;;;;;;16.53;2.20;;;;;;;;;;5070076;28;20830;-62